Time;durP1;ratioP1;P1;durP2;ratioP2;P2;SDS_P1;SDS_P2;PMS_P1;PMS_P2;Temp;Humidity;BMP_temperature;BMP_pressure;BME280_temperature;BME280_humidity;BME280_pressure;Samples;Min_cycle;Max_cycle;Signal;HPM_P1;HPM_P2
2023/10/11 00:00:25;;;;;;;9.45;4.30;;;;;;;;;;5001618;28;20404;-58
2023/10/11 00:02:50;;;;;;;8.68;4.75;;;;;;;;;;4999630;28;20426;-58
2023/10/11 00:05:17;;;;;;;10.63;4.90;;;;;;;;;;4993747;28;21208;-58
2023/10/11 00:07:44;;;;;;;9.95;4.60;;;;;;;;;;4994681;28;20842;-58
2023/10/11 00:10:10;;;;;;;9.18;4.15;;;;;;;;;;4997155;28;20959;-58
2023/10/11 00:12:36;;;;;;;9.53;4.50;;;;;;;;;;5008766;28;20396;-58
2023/10/11 00:15:02;;;;;;;9.07;4.43;;;;;;;;;;5001515;28;20428;-58
2023/10/11 00:17:28;;;;;;;9.77;4.63;;;;;;;;;;5001887;28;20764;-58
2023/10/11 00:19:53;;;;;;;10.40;4.45;;;;;;;;;;5001779;28;20396;-58
2023/10/11 00:22:18;;;;;;;10.57;4.50;;;;;;;;;;5001497;28;21380;-58
2023/10/11 00:24:44;;;;;;;10.13;4.77;;;;;;;;;;5000543;28;20499;-58
2023/10/11 00:27:10;;;;;;;7.85;4.40;;;;;;;;;;4995194;28;20413;-58
2023/10/11 00:29:39;;;;;;;9.60;4.55;;;;;;;;;;4998489;28;20957;-58
2023/10/11 00:32:04;;;;;;;10.82;4.78;;;;;;;;;;4998378;28;20466;-58
2023/10/11 00:34:32;;;;;;;11.03;4.70;;;;;;;;;;5005846;28;20405;-58
2023/10/11 00:36:58;;;;;;;8.65;4.22;;;;;;;;;;5010989;28;20412;-58
2023/10/11 00:39:24;;;;;;;10.80;4.30;;;;;;;;;;5004802;28;20450;-58
2023/10/11 00:41:50;;;;;;;10.40;4.50;;;;;;;;;;5005154;28;20994;-58
2023/10/11 00:44:20;;;;;;;10.05;4.90;;;;;;;;;;5005327;28;20412;-58
2023/10/11 00:46:57;;;;;;;10.20;4.55;;;;;;;;;;5005691;28;20488;-58
2023/10/11 00:49:22;;;;;;;9.27;4.55;;;;;;;;;;4998139;28;20724;-58
2023/10/11 00:51:48;;;;;;;11.98;4.90;;;;;;;;;;4997504;28;20483;-58
2023/10/11 00:54:15;;;;;;;10.67;4.43;;;;;;;;;;4997113;28;20421;-58
2023/10/11 00:56:43;;;;;;;9.57;4.53;;;;;;;;;;5014853;28;20905;-59
2023/10/11 00:59:10;;;;;;;8.65;4.47;;;;;;;;;;5004086;28;20496;-58
2023/10/11 01:01:36;;;;;;;8.48;4.30;;;;;;;;;;5006684;28;20449;-58
2023/10/11 01:04:02;;;;;;;9.67;4.10;;;;;;;;;;5004349;28;20422;-58
2023/10/11 01:06:28;;;;;;;9.95;4.70;;;;;;;;;;5004204;28;20401;-58
2023/10/11 01:08:54;;;;;;;8.82;4.68;;;;;;;;;;5004862;28;20524;-57
2023/10/11 01:11:19;;;;;;;8.90;4.53;;;;;;;;;;4999885;28;20735;-58
2023/10/11 01:13:50;;;;;;;9.30;4.37;;;;;;;;;;4996691;28;21131;-58
2023/10/11 01:16:16;;;;;;;8.07;4.50;;;;;;;;;;4997004;28;20444;-58
2023/10/11 01:18:42;;;;;;;9.68;4.75;;;;;;;;;;5003142;28;20542;-58
2023/10/11 01:21:08;;;;;;;8.85;4.30;;;;;;;;;;5003772;28;20415;-57
2023/10/11 01:23:34;;;;;;;11.40;4.30;;;;;;;;;;5005590;28;20413;-58
2023/10/11 01:26:06;;;;;;;11.70;4.45;;;;;;;;;;5004763;28;20395;-58
2023/10/11 01:28:31;;;;;;;11.45;4.50;;;;;;;;;;5009410;28;20482;-58
2023/10/11 01:30:57;;;;;;;9.77;4.43;;;;;;;;;;5005212;28;20423;-58
2023/10/11 01:33:22;;;;;;;7.40;4.40;;;;;;;;;;5000333;28;20397;-58
2023/10/11 01:35:48;;;;;;;8.87;4.47;;;;;;;;;;4995374;28;21135;-57
2023/10/11 01:38:17;;;;;;;10.13;4.35;;;;;;;;;;4995626;28;20486;-58
2023/10/11 01:40:43;;;;;;;8.80;4.38;;;;;;;;;;4999428;28;20407;-58
2023/10/11 01:43:08;;;;;;;8.63;4.60;;;;;;;;;;5004339;28;20413;-58
2023/10/11 01:45:34;;;;;;;10.68;5.05;;;;;;;;;;5007210;28;20414;-58
2023/10/11 01:48:00;;;;;;;10.30;4.55;;;;;;;;;;5022220;28;21036;-57
2023/10/11 01:50:28;;;;;;;11.93;4.88;;;;;;;;;;5016565;28;20388;-57
2023/10/11 01:52:53;;;;;;;9.50;4.15;;;;;;;;;;5016540;28;20427;-58
2023/10/11 01:55:19;;;;;;;9.40;4.47;;;;;;;;;;5022345;28;20429;-58
2023/10/11 01:57:45;;;;;;;9.00;4.70;;;;;;;;;;5015925;28;20795;-58
2023/10/11 02:00:13;;;;;;;10.68;4.45;;;;;;;;;;5016595;28;20407;-58
2023/10/11 02:02:44;;;;;;;9.55;4.47;;;;;;;;;;5015144;28;20440;-58
2023/10/11 02:05:11;;;;;;;8.98;4.38;;;;;;;;;;5014803;28;20938;-58
2023/10/11 02:07:36;;;;;;;9.68;4.60;;;;;;;;;;5018817;28;20433;-58
2023/10/11 02:10:03;;;;;;;10.30;4.60;;;;;;;;;;5019293;28;20415;-58
2023/10/11 02:12:28;;;;;;;9.63;4.33;;;;;;;;;;5002757;28;20417;-58
2023/10/11 02:14:53;;;;;;;12.10;4.80;;;;;;;;;;5003374;28;20411;-58
2023/10/11 02:17:23;;;;;;;7.33;4.47;;;;;;;;;;5003077;28;20443;-58
2023/10/11 02:19:49;;;;;;;8.63;4.50;;;;;;;;;;5003810;28;20408;-58
2023/10/11 02:22:18;;;;;;;11.65;4.95;;;;;;;;;;4995692;28;20776;-58
2023/10/11 02:24:44;;;;;;;9.02;4.57;;;;;;;;;;4995113;28;20405;-58
2023/10/11 02:27:17;;;;;;;11.30;4.80;;;;;;;;;;4996451;28;20978;-58
2023/10/11 02:29:42;;;;;;;9.65;4.50;;;;;;;;;;5003311;28;20399;-58
2023/10/11 02:32:08;;;;;;;11.43;4.77;;;;;;;;;;5003343;28;20424;-57
2023/10/11 02:34:35;;;;;;;10.70;5.07;;;;;;;;;;5004118;28;20404;-58
2023/10/11 02:37:04;;;;;;;10.68;5.45;;;;;;;;;;5002867;28;20401;-58
2023/10/11 02:39:42;;;;;;;9.43;5.10;;;;;;;;;;5003094;28;20396;-58
2023/10/11 02:42:07;;;;;;;10.00;4.80;;;;;;;;;;5002613;28;20513;-57
2023/10/11 02:44:33;;;;;;;10.13;4.40;;;;;;;;;;4997092;28;20414;-58
2023/10/11 02:46:58;;;;;;;10.67;4.77;;;;;;;;;;4995069;28;20783;-58
2023/10/11 02:49:24;;;;;;;9.40;4.80;;;;;;;;;;4994372;28;20435;-58
2023/10/11 02:51:54;;;;;;;11.03;4.87;;;;;;;;;;5001542;28;20425;-58
2023/10/11 02:54:20;;;;;;;10.50;4.75;;;;;;;;;;5002119;28;20454;-58
2023/10/11 02:56:49;;;;;;;11.57;5.27;;;;;;;;;;5002721;28;20447;-58
2023/10/11 02:59:19;;;;;;;9.45;5.13;;;;;;;;;;5001745;28;20927;-58
2023/10/11 03:01:45;;;;;;;8.73;4.70;;;;;;;;;;5008378;28;20414;-58
2023/10/11 03:04:15;;;;;;;11.63;4.97;;;;;;;;;;5003017;28;20897;-58
2023/10/11 03:06:47;;;;;;;9.65;4.70;;;;;;;;;;4998333;28;20829;-58
2023/10/11 03:09:12;;;;;;;10.68;4.88;;;;;;;;;;4996476;28;20475;-58
2023/10/11 03:11:45;;;;;;;10.70;5.17;;;;;;;;;;5000022;28;20393;-58
2023/10/11 03:14:12;;;;;;;7.82;4.82;;;;;;;;;;5023045;28;20415;-58
2023/10/11 03:16:42;;;;;;;12.05;5.32;;;;;;;;;;5017690;28;20415;-57
2023/10/11 03:19:10;;;;;;;9.32;5.30;;;;;;;;;;5015119;28;21029;-58
2023/10/11 03:21:35;;;;;;;9.75;5.13;;;;;;;;;;5013945;28;20462;-58
2023/10/11 03:24:03;;;;;;;9.37;4.90;;;;;;;;;;5014844;28;20820;-58
2023/10/11 03:29:03;;;;;;;11.20;5.27;;;;;;;;;;5013706;28;20408;-58
2023/10/11 03:31:29;;;;;;;10.75;5.35;;;;;;;;;;5014956;28;20397;-58
2023/10/11 03:33:56;;;;;;;9.18;4.90;;;;;;;;;;5014270;28;20411;-58
2023/10/11 03:36:28;;;;;;;11.80;5.60;;;;;;;;;;5012917;28;20969;-58
2023/10/11 03:38:53;;;;;;;9.90;5.07;;;;;;;;;;5013922;28;20452;-58
2023/10/11 03:41:24;;;;;;;10.67;5.43;;;;;;;;;;5014079;28;20435;-58
2023/10/11 03:43:54;;;;;;;9.68;5.57;;;;;;;;;;5013703;28;20411;-58
2023/10/11 03:46:22;;;;;;;9.48;5.05;;;;;;;;;;5021587;28;20401;-58
2023/10/11 03:48:52;;;;;;;10.45;5.70;;;;;;;;;;5014153;28;20415;-58
2023/10/11 03:51:19;;;;;;;11.48;5.10;;;;;;;;;;4998260;28;20418;-58
2023/10/11 03:53:47;;;;;;;9.30;5.20;;;;;;;;;;5000716;28;20414;-58
2023/10/11 03:56:13;;;;;;;9.50;5.20;;;;;;;;;;5001737;28;20904;-57
2023/10/11 03:58:38;;;;;;;11.18;5.60;;;;;;;;;;5002028;28;20404;-58
2023/10/11 04:03:39;;;;;;;9.38;5.07;;;;;;;;;;5000901;28;20467;-58
2023/10/11 04:06:13;;;;;;;11.02;5.78;;;;;;;;;;4999641;28;20404;-58
2023/10/11 04:08:41;;;;;;;10.43;5.43;;;;;;;;;;4997830;28;20972;-58
2023/10/11 04:11:14;;;;;;;8.98;5.32;;;;;;;;;;4993336;28;20430;-58
2023/10/11 04:13:44;;;;;;;9.80;5.20;;;;;;;;;;4997860;28;20401;-58
2023/10/11 04:16:10;;;;;;;10.20;5.78;;;;;;;;;;5001534;28;20417;-57
2023/10/11 04:18:37;;;;;;;9.73;5.73;;;;;;;;;;5008381;28;20466;-58
2023/10/11 04:23:35;;;;;;;9.55;5.68;;;;;;;;;;5002591;28;20412;-58
2023/10/11 04:26:07;;;;;;;9.85;5.60;;;;;;;;;;5003462;28;20921;-58
2023/10/11 04:28:33;;;;;;;13.50;5.80;;;;;;;;;;5000203;28;20963;-58
2023/10/11 04:31:28;;;;;;;12.13;5.87;;;;;;;;;;4993556;28;20431;-58
2023/10/11 04:33:50;;;;;;;12.60;5.88;;;;;;;;;;4994101;28;20752;-58
2023/10/11 04:36:20;;;;;;;11.00;5.80;;;;;;;;;;4999065;28;20408;-58
2023/10/11 04:38:47;;;;;;;13.20;5.53;;;;;;;;;;5000486;28;20416;-58
2023/10/11 04:41:16;;;;;;;10.00;5.38;;;;;;;;;;5000502;28;21009;-58
2023/10/11 04:43:50;;;;;;;12.88;6.00;;;;;;;;;;5002384;28;20416;-58
2023/10/11 04:46:15;;;;;;;11.82;5.57;;;;;;;;;;5005864;28;20433;-58
2023/10/11 04:48:41;;;;;;;11.07;6.07;;;;;;;;;;5001769;28;20409;-58
2023/10/11 04:51:13;;;;;;;14.18;5.88;;;;;;;;;;4999008;28;20500;-57
2023/10/11 04:59:06;;;;;;;10.77;5.57;;;;;;;;;;4995057;28;20943;-58
2023/10/11 05:01:58;;;;;;;12.52;5.75;;;;;;;;;;5002037;28;20483;-58
2023/10/11 05:04:32;;;;;;;11.35;5.82;;;;;;;;;;5000731;28;20415;-58
2023/10/11 05:06:57;;;;;;;10.93;5.90;;;;;;;;;;5006570;28;20442;-58
2023/10/11 05:09:30;;;;;;;10.00;5.70;;;;;;;;;;5000879;28;20483;-58
2023/10/11 05:12:07;;;;;;;11.77;5.93;;;;;;;;;;5001124;28;20409;-58
2023/10/11 05:19:39;;;;;;;12.55;6.45;;;;;;;;;;4996654;28;21031;-58
2023/10/11 05:22:08;;;;;;;15.15;6.13;;;;;;;;;;5001165;28;20409;-58
2023/10/11 05:27:36;;;;;;;11.60;5.90;;;;;;;;;;5003506;28;20800;-58
2023/10/11 05:32:32;;;;;;;12.65;6.20;;;;;;;;;;5005576;28;20455;-58
2023/10/11 05:51:19;;;;;;;14.00;6.70;;;;;;;;;;5019971;28;20402;-58
2023/10/11 05:53:46;;;;;;;12.75;6.40;;;;;;;;;;5023985;28;20399;-58
2023/10/11 05:56:20;;;;;;;11.98;6.40;;;;;;;;;;5015388;28;20522;-58
2023/10/11 05:58:46;;;;;;;14.93;6.68;;;;;;;;;;5016238;28;20540;-58
2023/10/11 06:01:13;;;;;;;14.67;6.30;;;;;;;;;;5022812;28;20416;-57
2023/10/11 06:03:38;;;;;;;12.30;6.68;;;;;;;;;;5015838;28;20503;-58
2023/10/11 06:08:47;;;;;;;13.38;6.35;;;;;;;;;;5022961;28;20424;-58
2023/10/11 06:11:15;;;;;;;13.00;6.85;;;;;;;;;;5020403;28;20404;-57
2023/10/11 06:13:43;;;;;;;12.05;6.32;;;;;;;;;;5017667;28;20454;-58
2023/10/11 06:16:13;;;;;;;12.75;6.55;;;;;;;;;;5019574;28;20422;-57
2023/10/11 06:18:39;;;;;;;11.35;6.40;;;;;;;;;;5017465;28;20398;-58
2023/10/11 06:21:08;;;;;;;11.55;6.70;;;;;;;;;;5015113;28;20412;-57
2023/10/11 06:23:38;;;;;;;13.00;6.70;;;;;;;;;;5016153;28;20411;-58
2023/10/11 06:26:28;;;;;;;12.02;6.28;;;;;;;;;;5014224;28;20428;-58
2023/10/11 06:28:48;;;;;;;13.98;6.88;;;;;;;;;;5016610;28;20393;-58
2023/10/11 06:31:14;;;;;;;13.90;7.10;;;;;;;;;;5014684;28;20428;-58
2023/10/11 06:33:44;;;;;;;12.98;6.60;;;;;;;;;;5015976;28;20485;-58
2023/10/11 06:36:14;;;;;;;11.88;6.75;;;;;;;;;;5022366;28;20418;-58
2023/10/11 06:38:41;;;;;;;14.88;7.13;;;;;;;;;;5014319;28;20401;-58
2023/10/11 06:41:36;;;;;;;11.23;6.68;;;;;;;;;;5017426;28;20766;-58
2023/10/11 06:44:01;;;;;;;13.27;7.17;;;;;;;;;;5016507;28;20422;-58
2023/10/11 06:46:27;;;;;;;15.07;6.90;;;;;;;;;;5016216;28;20399;-58
2023/10/11 06:48:55;;;;;;;14.83;6.90;;;;;;;;;;5023039;28;20404;-58
2023/10/11 06:51:20;;;;;;;14.45;7.28;;;;;;;;;;5015206;28;20441;-58
2023/10/11 06:53:46;;;;;;;14.33;7.20;;;;;;;;;;5015229;28;20927;-58
2023/10/11 06:56:16;;;;;;;15.77;7.40;;;;;;;;;;5022496;28;20407;-58
2023/10/11 06:58:44;;;;;;;13.60;7.43;;;;;;;;;;5014478;28;20412;-58
2023/10/11 07:01:10;;;;;;;14.80;7.63;;;;;;;;;;5015115;28;20496;-58
2023/10/11 07:03:38;;;;;;;14.43;7.25;;;;;;;;;;5014082;28;20911;-58
2023/10/11 07:06:10;;;;;;;13.00;7.30;;;;;;;;;;5021539;28;20412;-58
2023/10/11 07:08:36;;;;;;;14.30;7.03;;;;;;;;;;5016157;28;20521;-58
2023/10/11 07:11:10;;;;;;;15.40;7.10;;;;;;;;;;5014426;28;20499;-58
2023/10/11 07:16:19;;;;;;;14.40;7.37;;;;;;;;;;5021633;28;20411;-59
2023/10/11 07:18:46;;;;;;;14.35;7.10;;;;;;;;;;5015068;28;20404;-58
2023/10/11 07:21:11;;;;;;;12.88;7.38;;;;;;;;;;5021604;28;20491;-58
2023/10/11 07:29:01;;;;;;;17.75;7.88;;;;;;;;;;5015123;28;20417;-58
2023/10/11 07:31:32;;;;;;;16.67;8.13;;;;;;;;;;5013340;28;20888;-58
2023/10/11 07:33:57;;;;;;;15.75;8.27;;;;;;;;;;5012791;28;20408;-58
2023/10/11 07:36:23;;;;;;;14.70;7.80;;;;;;;;;;5016771;28;20487;-58
2023/10/11 07:38:54;;;;;;;17.43;8.60;;;;;;;;;;5019672;28;20401;-58
2023/10/11 07:41:21;;;;;;;16.30;8.20;;;;;;;;;;5020658;28;20531;-58
2023/10/11 07:43:46;;;;;;;16.10;8.25;;;;;;;;;;5020539;28;20781;-58
2023/10/11 07:46:12;;;;;;;15.87;8.30;;;;;;;;;;5016132;28;20395;-58
2023/10/11 07:48:39;;;;;;;13.87;8.13;;;;;;;;;;5021204;28;20918;-58
2023/10/11 07:51:09;;;;;;;16.20;8.13;;;;;;;;;;5021710;28;20403;-58
2023/10/11 07:53:36;;;;;;;17.47;8.53;;;;;;;;;;5017298;28;20477;-58
2023/10/11 07:56:03;;;;;;;15.80;8.65;;;;;;;;;;5018989;28;20431;-58
2023/10/11 07:58:32;;;;;;;17.48;8.80;;;;;;;;;;5021708;28;20457;-58
2023/10/11 08:01:02;;;;;;;15.23;8.05;;;;;;;;;;5019462;28;20403;-58
2023/10/11 08:03:34;;;;;;;15.87;8.50;;;;;;;;;;5015317;28;20407;-58
2023/10/11 08:06:00;;;;;;;18.35;8.95;;;;;;;;;;5021760;28;20481;-58
2023/10/11 08:08:30;;;;;;;14.55;8.75;;;;;;;;;;5012166;28;20385;-58
2023/10/11 08:10:56;;;;;;;14.10;8.07;;;;;;;;;;5014785;28;20408;-58
2023/10/11 08:13:28;;;;;;;15.73;8.50;;;;;;;;;;5013632;28;20517;-58
2023/10/11 08:15:57;;;;;;;17.02;8.93;;;;;;;;;;5020542;28;20408;-58
2023/10/11 08:18:23;;;;;;;16.40;8.85;;;;;;;;;;5013525;28;20447;-58
2023/10/11 08:20:48;;;;;;;16.02;8.88;;;;;;;;;;5015026;28;20932;-58
2023/10/11 08:23:28;;;;;;;16.50;8.82;;;;;;;;;;5020471;28;20986;-58
2023/10/11 08:25:53;;;;;;;13.68;8.30;;;;;;;;;;5013354;28;20753;-58
2023/10/11 08:28:27;;;;;;;13.90;8.50;;;;;;;;;;5018266;28;20410;-58
2023/10/11 08:30:56;;;;;;;16.15;8.65;;;;;;;;;;5015562;28;20395;-58
2023/10/11 08:33:22;;;;;;;15.75;9.23;;;;;;;;;;5020925;28;20385;-58
2023/10/11 08:35:52;;;;;;;15.07;8.50;;;;;;;;;;5013060;28;20415;-58
2023/10/11 08:38:18;;;;;;;16.23;8.88;;;;;;;;;;5014323;28;20947;-58
2023/10/11 08:40:44;;;;;;;18.52;9.27;;;;;;;;;;5013353;28;20886;-58
2023/10/11 08:43:09;;;;;;;15.23;8.53;;;;;;;;;;5020361;28;20441;-58
2023/10/11 08:45:47;;;;;;;16.40;8.90;;;;;;;;;;5012159;28;20455;-58
2023/10/11 08:48:12;;;;;;;15.63;9.10;;;;;;;;;;5014391;28;20412;-58
2023/10/11 08:50:37;;;;;;;17.53;9.13;;;;;;;;;;5024452;28;20401;-58
2023/10/11 08:53:08;;;;;;;19.77;10.33;;;;;;;;;;5016797;28;20843;-57
2023/10/11 08:55:35;;;;;;;16.85;10.02;;;;;;;;;;5018218;28;21049;-58
2023/10/11 08:58:04;;;;;;;18.75;10.05;;;;;;;;;;5016205;28;20411;-58
2023/10/11 09:00:31;;;;;;;18.15;10.40;;;;;;;;;;5028960;28;20395;-58
2023/10/11 09:02:58;;;;;;;20.60;11.20;;;;;;;;;;5031416;28;20512;-58
2023/10/11 09:05:28;;;;;;;21.73;12.00;;;;;;;;;;5016505;28;20401;-58
2023/10/11 09:07:53;;;;;;;19.80;11.57;;;;;;;;;;5017191;28;20904;-58
2023/10/11 09:10:23;;;;;;;19.17;11.67;;;;;;;;;;5024061;28;20418;-58
2023/10/11 09:12:49;;;;;;;19.85;11.48;;;;;;;;;;5021055;28;20770;-57
2023/10/11 09:15:14;;;;;;;19.00;12.00;;;;;;;;;;5020063;28;20432;-58
2023/10/11 09:17:39;;;;;;;21.07;12.77;;;;;;;;;;5016589;28;20395;-58
2023/10/11 09:20:15;;;;;;;21.70;12.60;;;;;;;;;;5015164;28;20416;-58
2023/10/11 09:22:45;;;;;;;19.70;12.10;;;;;;;;;;5017974;28;20678;-58
2023/10/11 09:25:21;;;;;;;22.13;13.60;;;;;;;;;;5016742;28;20974;-58
2023/10/11 09:27:48;;;;;;;21.50;12.93;;;;;;;;;;5024720;28;20413;-58
2023/10/11 09:30:19;;;;;;;24.75;13.50;;;;;;;;;;5015843;28;20431;-58
2023/10/11 09:32:48;;;;;;;23.67;13.17;;;;;;;;;;5017063;28;20427;-58
2023/10/11 09:35:25;;;;;;;20.95;13.20;;;;;;;;;;5015765;28;20413;-58
2023/10/11 09:37:50;;;;;;;22.48;13.23;;;;;;;;;;5024158;28;20409;-58
2023/10/11 09:40:18;;;;;;;24.40;13.83;;;;;;;;;;5015955;28;20443;-58
2023/10/11 09:42:43;;;;;;;21.27;13.90;;;;;;;;;;5016952;28;20475;-58
2023/10/11 09:45:09;;;;;;;25.73;13.60;;;;;;;;;;5021936;28;20421;-58
2023/10/11 09:47:34;;;;;;;23.20;13.07;;;;;;;;;;5015588;28;20896;-59
2023/10/11 09:50:00;;;;;;;24.17;13.23;;;;;;;;;;5016083;28;20416;-58
2023/10/11 09:52:25;;;;;;;24.63;14.23;;;;;;;;;;5023481;28;20405;-58
2023/10/11 09:54:50;;;;;;;22.87;14.33;;;;;;;;;;5013746;28;20456;-58
2023/10/11 09:57:22;;;;;;;28.90;15.15;;;;;;;;;;5017844;28;20412;-58
2023/10/11 09:59:50;;;;;;;24.83;14.35;;;;;;;;;;5020658;28;20932;-58
2023/10/11 10:02:30;;;;;;;24.93;14.90;;;;;;;;;;5022049;28;20408;-58
2023/10/11 10:04:56;;;;;;;26.38;15.13;;;;;;;;;;5015677;28;20435;-58
2023/10/11 10:07:34;;;;;;;26.87;15.30;;;;;;;;;;5015862;28;21190;-58
2023/10/11 10:10:07;;;;;;;21.08;14.90;;;;;;;;;;5015514;28;20449;-58
2023/10/11 10:12:33;;;;;;;24.92;15.15;;;;;;;;;;5023650;28;20826;-58
2023/10/11 10:15:03;;;;;;;22.67;14.90;;;;;;;;;;5015512;28;20416;-58
2023/10/11 10:17:28;;;;;;;25.13;15.32;;;;;;;;;;5015961;28;20917;-58
2023/10/11 10:19:59;;;;;;;23.03;14.97;;;;;;;;;;5014973;28;20428;-58
2023/10/11 10:22:27;;;;;;;26.40;15.70;;;;;;;;;;5013813;28;20397;-58
2023/10/11 10:24:58;;;;;;;24.35;14.88;;;;;;;;;;5017502;28;20415;-58
2023/10/11 10:27:33;;;;;;;25.38;16.20;;;;;;;;;;5021004;28;20436;-58
2023/10/11 10:29:59;;;;;;;26.60;16.55;;;;;;;;;;5015801;28;20407;-58
2023/10/11 10:32:25;;;;;;;27.50;16.52;;;;;;;;;;5014582;28;20856;-58
2023/10/11 10:34:54;;;;;;;25.63;16.37;;;;;;;;;;5016523;28;20411;-58
2023/10/11 10:37:38;;;;;;;26.70;16.10;;;;;;;;;;5011982;28;20987;-58
2023/10/11 10:40:15;;;;;;;25.37;16.70;;;;;;;;;;5014382;28;20413;-57
2023/10/11 10:42:45;;;;;;;28.50;16.23;;;;;;;;;;5020676;28;20570;-58
2023/10/11 10:45:12;;;;;;;25.47;15.67;;;;;;;;;;5017013;28;20410;-58
2023/10/11 10:47:37;;;;;;;26.50;15.95;;;;;;;;;;5014903;28;20902;-58
2023/10/11 10:50:09;;;;;;;30.27;16.67;;;;;;;;;;5021606;28;20522;-58
2023/10/11 10:52:34;;;;;;;25.48;15.95;;;;;;;;;;5018265;28;20409;-58
2023/10/11 10:55:02;;;;;;;27.13;16.20;;;;;;;;;;5020901;28;20430;-58
2023/10/11 10:57:31;;;;;;;26.73;15.90;;;;;;;;;;5021625;28;20457;-58
2023/10/11 10:59:56;;;;;;;27.60;16.27;;;;;;;;;;5021573;28;20403;-58
2023/10/11 11:02:21;;;;;;;28.83;15.47;;;;;;;;;;5017020;28;20398;-58
2023/10/11 11:04:47;;;;;;;27.00;16.17;;;;;;;;;;5013938;28;20770;-58
2023/10/11 11:07:22;;;;;;;29.93;15.97;;;;;;;;;;5021880;28;20485;-58
2023/10/11 11:09:48;;;;;;;24.53;15.73;;;;;;;;;;5015731;28;20434;-58
2023/10/11 11:12:16;;;;;;;30.05;16.00;;;;;;;;;;5012606;28;20404;-58
2023/10/11 11:14:58;;;;;;;26.50;15.30;;;;;;;;;;5021900;28;21242;-58
2023/10/11 11:17:23;;;;;;;27.07;15.40;;;;;;;;;;5017197;28;20550;-58
2023/10/11 11:20:12;;;;;;;27.33;15.68;;;;;;;;;;5015257;28;20439;-58
2023/10/11 11:22:38;;;;;;;27.05;14.88;;;;;;;;;;5014121;28;20395;-58
2023/10/11 11:25:26;;;;;;;24.42;14.98;;;;;;;;;;5020771;28;20411;-58
2023/10/11 11:28:01;;;;;;;26.33;15.75;;;;;;;;;;5014079;28;20405;-58
2023/10/11 11:30:33;;;;;;;25.42;14.52;;;;;;;;;;5016605;28;20455;-58
2023/10/11 11:33:00;;;;;;;26.38;15.20;;;;;;;;;;5018852;28;20499;-58
2023/10/11 11:35:33;;;;;;;27.20;14.83;;;;;;;;;;5013446;28;20837;-58
2023/10/11 11:38:01;;;;;;;27.20;14.68;;;;;;;;;;5014213;28;20409;-58
2023/10/11 11:40:27;;;;;;;22.73;13.57;;;;;;;;;;5014375;28;20402;-58
2023/10/11 11:42:53;;;;;;;25.60;13.87;;;;;;;;;;5022023;28;20802;-58
2023/10/11 11:45:18;;;;;;;23.77;13.02;;;;;;;;;;5014902;28;20912;-58
2023/10/11 11:47:56;;;;;;;25.15;13.25;;;;;;;;;;5016728;28;20518;-58
2023/10/11 11:50:23;;;;;;;23.60;12.57;;;;;;;;;;5018208;28;20385;-58
2023/10/11 11:52:48;;;;;;;23.67;12.27;;;;;;;;;;5021305;28;20594;-58
2023/10/11 11:55:13;;;;;;;21.90;11.63;;;;;;;;;;5013223;28;20795;-58
2023/10/11 11:57:39;;;;;;;21.70;11.93;;;;;;;;;;5015364;28;20412;-58
2023/10/11 12:00:26;;;;;;;21.77;11.63;;;;;;;;;;5020262;28;20895;-58
2023/10/11 12:02:53;;;;;;;22.13;10.60;;;;;;;;;;5013528;28;20787;-58
2023/10/11 12:05:19;;;;;;;22.00;10.80;;;;;;;;;;5018238;28;20761;-58
2023/10/11 12:07:44;;;;;;;21.17;10.77;;;;;;;;;;5016926;28;20409;-58
2023/10/11 12:10:23;;;;;;;20.60;10.07;;;;;;;;;;5012972;28;20416;-58
2023/10/11 12:12:50;;;;;;;16.73;9.87;;;;;;;;;;5021938;28;20403;-58
2023/10/11 12:15:17;;;;;;;20.90;9.43;;;;;;;;;;5013159;28;20455;-58
2023/10/11 12:17:42;;;;;;;18.17;9.60;;;;;;;;;;5013945;28;20919;-58
2023/10/11 12:20:12;;;;;;;21.52;9.43;;;;;;;;;;5012638;28;20441;-58
2023/10/11 12:22:42;;;;;;;18.60;8.93;;;;;;;;;;5014677;28;20424;-58
2023/10/11 12:25:09;;;;;;;16.58;9.00;;;;;;;;;;5018224;28;20503;-57
2023/10/11 12:27:38;;;;;;;16.88;9.00;;;;;;;;;;5025245;28;20737;-58
2023/10/11 12:30:09;;;;;;;17.20;9.13;;;;;;;;;;5017211;28;20475;-58
2023/10/11 12:32:34;;;;;;;17.52;9.07;;;;;;;;;;5020975;28;20914;-58
2023/10/11 12:35:04;;;;;;;17.30;8.93;;;;;;;;;;5022787;28;20442;-58
2023/10/11 12:37:30;;;;;;;19.03;8.53;;;;;;;;;;5016795;28;20399;-58
2023/10/11 12:39:55;;;;;;;19.30;8.73;;;;;;;;;;5023632;28;20407;-58
2023/10/11 12:42:22;;;;;;;17.30;8.50;;;;;;;;;;5019859;28;20512;-58
2023/10/11 12:44:47;;;;;;;18.00;8.90;;;;;;;;;;5024870;28;20420;-58
2023/10/11 12:47:13;;;;;;;16.53;8.53;;;;;;;;;;5016696;28;20985;-58
2023/10/11 12:49:38;;;;;;;18.95;8.80;;;;;;;;;;5018324;28;20402;-58
2023/10/11 12:52:05;;;;;;;17.05;8.40;;;;;;;;;;5024200;28;20494;-57
2023/10/11 12:54:31;;;;;;;15.88;8.40;;;;;;;;;;5016746;28;20815;-58
2023/10/11 12:56:56;;;;;;;16.83;8.60;;;;;;;;;;5017136;28;20488;-58
2023/10/11 12:59:22;;;;;;;16.83;8.77;;;;;;;;;;5016949;28;20401;-58
2023/10/11 13:01:52;;;;;;;17.63;9.60;;;;;;;;;;5016603;28;20778;-58
2023/10/11 13:04:18;;;;;;;16.63;9.00;;;;;;;;;;5015783;28;20412;-58
2023/10/11 13:06:49;;;;;;;16.10;9.00;;;;;;;;;;5017892;28;20421;-58
2023/10/11 13:09:15;;;;;;;16.85;9.57;;;;;;;;;;5016194;28;20539;-58
2023/10/11 13:11:44;;;;;;;19.27;9.77;;;;;;;;;;5015945;28;20787;-58
2023/10/11 13:14:16;;;;;;;19.38;9.88;;;;;;;;;;5019730;28;20410;-58
2023/10/11 13:16:42;;;;;;;16.65;9.90;;;;;;;;;;5020672;28;20413;-58
2023/10/11 13:19:08;;;;;;;17.67;10.37;;;;;;;;;;5023400;28;20458;-58
2023/10/11 13:21:35;;;;;;;18.42;10.20;;;;;;;;;;5024495;28;20434;-58
2023/10/11 13:24:08;;;;;;;17.65;10.82;;;;;;;;;;5017190;28;21006;-59
2023/10/11 13:26:33;;;;;;;19.92;10.82;;;;;;;;;;5015392;28;20406;-58
2023/10/11 13:29:01;;;;;;;20.10;11.47;;;;;;;;;;5016541;28;20411;-58
2023/10/11 13:31:29;;;;;;;19.53;11.57;;;;;;;;;;5018809;28;20476;-58
2023/10/11 13:33:55;;;;;;;21.83;12.07;;;;;;;;;;4995389;28;20412;-58
2023/10/11 13:36:21;;;;;;;27.53;13.43;;;;;;;;;;5014230;28;20403;-58
2023/10/11 13:38:47;;;;;;;19.52;13.20;;;;;;;;;;5000337;28;21227;-58
2023/10/11 13:41:12;;;;;;;22.60;12.80;;;;;;;;;;5007425;28;20917;-58
2023/10/11 13:43:39;;;;;;;21.33;13.40;;;;;;;;;;5026349;28;20758;-58
2023/10/11 13:46:10;;;;;;;22.60;14.85;;;;;;;;;;5010530;28;20480;-58
2023/10/11 13:48:37;;;;;;;25.50;14.60;;;;;;;;;;5025996;28;20403;-58
2023/10/11 13:51:03;;;;;;;22.55;14.68;;;;;;;;;;5011705;28;20405;-58
2023/10/11 13:53:30;;;;;;;25.52;15.85;;;;;;;;;;5024610;28;20427;-58
2023/10/11 13:55:58;;;;;;;22.27;14.67;;;;;;;;;;5022057;28;20848;-58
2023/10/11 13:58:25;;;;;;;25.15;15.85;;;;;;;;;;5017676;28;20474;-58
2023/10/11 14:05:43;;;;;;;24.20;15.83;;;;;;;;;;5010462;28;20401;-58
2023/10/11 14:08:24;;;;;;;25.10;16.00;;;;;;;;;;5011505;28;20421;-58
2023/10/11 14:10:51;;;;;;;25.17;16.65;;;;;;;;;;5008738;28;20405;-58
2023/10/11 14:13:21;;;;;;;24.52;15.82;;;;;;;;;;5007197;28;20516;-58
2023/10/11 14:15:46;;;;;;;23.20;15.57;;;;;;;;;;5009313;28;20417;-58
2023/10/11 14:18:14;;;;;;;23.53;15.57;;;;;;;;;;5005590;28;20412;-58
2023/10/11 14:20:40;;;;;;;22.77;15.70;;;;;;;;;;4999409;28;20904;-59
2023/10/11 14:23:06;;;;;;;26.20;15.88;;;;;;;;;;5001376;28;20539;-58
2023/10/11 14:25:31;;;;;;;26.87;16.20;;;;;;;;;;5002258;28;20413;-58
2023/10/11 14:27:57;;;;;;;24.17;16.07;;;;;;;;;;5007011;28;20813;-58
2023/10/11 14:30:23;;;;;;;26.27;16.75;;;;;;;;;;5007756;28;20488;-58
2023/10/11 14:32:50;;;;;;;25.77;16.80;;;;;;;;;;5017039;28;20890;-58
2023/10/11 14:35:15;;;;;;;25.23;16.23;;;;;;;;;;5021717;28;20407;-58
2023/10/11 14:37:41;;;;;;;23.23;16.80;;;;;;;;;;5014920;28;20424;-58
2023/10/11 14:40:14;;;;;;;23.23;15.97;;;;;;;;;;5015849;28;20940;-58
2023/10/11 14:42:40;;;;;;;24.88;16.30;;;;;;;;;;5014084;28;20411;-58
2023/10/11 14:45:05;;;;;;;23.88;16.65;;;;;;;;;;5017509;28;20407;-57
2023/10/11 14:47:31;;;;;;;24.40;17.17;;;;;;;;;;5019743;28;20411;-58
2023/10/11 14:49:57;;;;;;;24.70;16.30;;;;;;;;;;5019426;28;20479;-58
2023/10/11 14:52:22;;;;;;;26.00;17.20;;;;;;;;;;5014066;28;20406;-58
2023/10/11 14:54:48;;;;;;;25.27;16.57;;;;;;;;;;5021877;28;20404;-58
2023/10/11 14:57:13;;;;;;;26.43;17.53;;;;;;;;;;5016282;28;20407;-58
2023/10/11 14:59:39;;;;;;;24.43;17.17;;;;;;;;;;5022881;28;20407;-58
2023/10/11 15:02:04;;;;;;;23.30;16.60;;;;;;;;;;5022363;28;20485;-58
2023/10/11 15:04:30;;;;;;;25.27;16.77;;;;;;;;;;5016416;28;20401;-58
2023/10/11 15:06:56;;;;;;;25.17;16.90;;;;;;;;;;5021238;28;20404;-58
2023/10/11 15:09:21;;;;;;;26.50;16.27;;;;;;;;;;5013558;28;20504;-58
2023/10/11 15:11:47;;;;;;;24.63;15.57;;;;;;;;;;5018699;28;20395;-58
2023/10/11 15:14:13;;;;;;;24.92;15.25;;;;;;;;;;5019372;28;20428;-58
2023/10/11 15:16:38;;;;;;;25.43;16.20;;;;;;;;;;5025224;28;20459;-58
2023/10/11 15:19:04;;;;;;;23.03;15.43;;;;;;;;;;5019762;28;20398;-58
2023/10/11 15:21:29;;;;;;;24.03;15.50;;;;;;;;;;5023040;28;20474;-58
2023/10/11 15:23:55;;;;;;;24.70;15.47;;;;;;;;;;5013147;28;20429;-58
2023/10/11 15:26:21;;;;;;;25.40;15.38;;;;;;;;;;5029856;28;20758;-58